Time;durP1;ratioP1;P1;durP2;ratioP2;P2;SDS_P1;SDS_P2;PMS_P1;PMS_P2;Temp;Humidity;BMP_temperature;BMP_pressure;BME280_temperature;BME280_humidity;BME280_pressure;Samples;Min_cycle;Max_cycle;Signal;HPM_P1;HPM_P2
2023/08/01 00:01:23;;;;;;;6.80;4.00;;;;;;;18.70;66.43;99309.33;131416;1254;107594;-79
2023/08/01 00:04:29;;;;;;;5.80;3.80;;;;;;;18.67;66.54;99305.17;131484;1251;107186;-80
2023/08/01 00:07:34;;;;;;;5.30;4.00;;;;;;;18.65;66.53;99299.71;131357;1253;106041;-79
2023/08/01 00:10:40;;;;;;;7.20;4.10;;;;;;;18.63;66.74;99298.16;131492;1251;107409;-79
2023/08/01 00:13:46;;;;;;;5.90;4.10;;;;;;;18.64;66.87;99296.48;131391;1251;107505;-79
2023/08/01 00:16:52;;;;;;;5.70;4.10;;;;;;;18.62;66.85;99296.67;131356;1248;107594;-79
2023/08/01 00:19:57;;;;;;;5.00;3.70;;;;;;;18.61;66.91;99296.20;131376;1251;107584;-79
2023/08/01 00:23:03;;;;;;;4.90;3.60;;;;;;;18.61;67.05;99296.64;131497;1253;107357;-79
2023/08/01 00:26:08;;;;;;;7.80;3.80;;;;;;;18.64;67.01;99292.54;131386;1248;108322;-79
2023/08/01 00:29:14;;;;;;;6.60;3.70;;;;;;;18.65;67.00;99290.58;131455;1251;107528;-79
2023/08/01 00:32:19;;;;;;;4.60;3.70;;;;;;;18.66;67.03;99289.20;131535;1251;107519;-79
2023/08/01 00:35:25;;;;;;;4.40;3.50;;;;;;;18.64;67.18;99287.05;131429;1251;107596;-79
2023/08/01 00:38:31;;;;;;;5.50;3.70;;;;;;;18.60;67.15;99284.20;131117;1248;107515;-79
2023/08/01 00:41:36;;;;;;;5.20;3.50;;;;;;;18.57;67.10;99277.56;131429;1251;106842;-80
2023/08/01 00:44:42;;;;;;;6.30;4.30;;;;;;;18.51;67.36;99273.28;131402;1250;107462;-80
2023/08/01 00:47:48;;;;;;;4.70;3.90;;;;;;;18.46;67.46;99271.05;131404;1251;107209;-79
2023/08/01 00:50:54;;;;;;;6.80;3.70;;;;;;;18.41;67.47;99266.22;131299;1247;107559;-78
2023/08/01 00:54:01;;;;;;;5.30;3.70;;;;;;;18.35;67.51;99269.52;131395;1248;107213;-79
2023/08/01 00:57:07;;;;;;;5.70;3.70;;;;;;;18.26;67.55;99261.27;131350;1253;106516;-79
2023/08/01 01:00:15;;;;;;;3.90;3.30;;;;;;;18.19;67.73;99250.06;131383;1248;107583;-79
2023/08/01 01:03:20;;;;;;;3.60;3.10;;;;;;;18.14;67.79;99249.73;131429;1253;106588;-79
2023/08/01 01:06:29;;;;;;;4.50;3.30;;;;;;;18.10;67.91;99250.17;131182;1263;107497;-79
2023/08/01 01:09:34;;;;;;;4.60;3.50;;;;;;;18.07;67.90;99246.48;131223;1248;108704;-79
2023/08/01 01:12:40;;;;;;;5.10;3.40;;;;;;;18.05;68.05;99241.05;131230;1253;107531;-79
2023/08/01 01:15:45;;;;;;;4.70;3.70;;;;;;;18.05;67.98;99238.02;131180;1253;107509;-79
2023/08/01 01:18:51;;;;;;;4.10;3.50;;;;;;;18.04;68.04;99234.32;131409;1252;107581;-79
2023/08/01 01:22:04;;;;;;;5.40;3.70;;;;;;;18.05;68.20;99225.23;131243;1253;107526;-79
2023/08/01 01:25:16;;;;;;;4.20;3.60;;;;;;;18.09;68.11;99219.86;131328;1253;107513;-79
2023/08/01 01:28:23;;;;;;;4.90;3.70;;;;;;;18.12;68.21;99215.41;131260;1253;108602;-79
2023/08/01 01:31:29;;;;;;;6.10;3.60;;;;;;;18.13;68.20;99207.84;131266;1248;107514;-80
2023/08/01 01:34:35;;;;;;;4.30;3.50;;;;;;;18.15;68.13;99206.32;131283;1248;107532;-79
2023/08/01 01:37:40;;;;;;;5.30;4.10;;;;;;;18.16;68.24;99198.42;131203;1253;107258;-80
2023/08/01 01:40:46;;;;;;;5.10;3.40;;;;;;;18.18;68.24;99193.99;131046;1253;106647;-79
2023/08/01 01:43:52;;;;;;;6.40;3.20;;;;;;;18.20;68.24;99186.36;131204;1252;107570;-80
2023/08/01 01:46:57;;;;;;;5.20;3.20;;;;;;;18.23;68.37;99184.89;131253;1253;107538;-79
2023/08/01 01:50:05;;;;;;;5.40;3.20;;;;;;;18.28;68.30;99183.55;131280;1253;106368;-79
2023/08/01 01:53:11;;;;;;;4.60;3.30;;;;;;;18.33;68.38;99175.38;131380;1253;107397;-79
2023/08/01 01:56:16;;;;;;;4.10;3.10;;;;;;;18.37;68.27;99171.53;131210;1251;108097;-79
2023/08/01 01:59:22;;;;;;;3.80;3.10;;;;;;;18.41;68.25;99163.05;131060;1253;106496;-79
2023/08/01 02:02:27;;;;;;;4.70;3.30;;;;;;;18.42;68.21;99150.01;131232;1254;107279;-80
2023/08/01 02:05:33;;;;;;;4.40;3.30;;;;;;;18.43;68.23;99153.27;131279;1247;107539;-80
2023/08/01 02:08:38;;;;;;;4.00;3.20;;;;;;;18.43;68.16;99145.09;131194;1253;107494;-79
2023/08/01 02:11:44;;;;;;;3.80;3.20;;;;;;;18.42;68.30;99138.21;131335;1248;107440;-79
2023/08/01 02:14:50;;;;;;;4.20;3.40;;;;;;;18.42;68.18;99133.52;131121;1253;107633;-79
2023/08/01 02:17:56;;;;;;;3.80;3.20;;;;;;;18.41;68.12;99131.94;131240;1253;106799;-79
2023/08/01 02:21:01;;;;;;;4.20;3.20;;;;;;;18.40;68.18;99130.30;131144;1254;106564;-79
2023/08/01 02:24:07;;;;;;;4.70;3.10;;;;;;;18.39;68.22;99128.80;131092;1253;106641;-79
2023/08/01 02:27:13;;;;;;;3.50;2.80;;;;;;;18.35;68.36;99121.91;131289;1254;107517;-79
2023/08/01 02:30:19;;;;;;;4.20;2.70;;;;;;;18.33;68.40;99115.25;131293;1247;107344;-78
2023/08/01 02:33:24;;;;;;;5.30;2.80;;;;;;;18.32;68.31;99106.42;131157;1253;107558;-78
2023/08/01 02:36:30;;;;;;;3.90;2.80;;;;;;;18.32;68.32;99107.80;131276;1253;107487;-81
2023/08/01 02:39:35;;;;;;;4.00;3.00;;;;;;;18.33;68.31;99103.80;131263;1248;107235;-80
2023/08/01 02:42:41;;;;;;;5.90;3.00;;;;;;;18.32;68.19;99104.27;131401;1253;107316;-80
2023/08/01 02:45:46;;;;;;;3.70;3.00;;;;;;;18.28;68.27;99101.95;131248;1253;107504;-79
2023/08/01 02:48:52;;;;;;;3.90;2.90;;;;;;;18.25;68.49;99099.08;131331;1254;106821;-80
2023/08/01 02:51:58;;;;;;;4.70;3.20;;;;;;;18.25;68.50;99096.32;131151;1253;107495;-79
2023/08/01 02:55:04;;;;;;;4.20;3.30;;;;;;;18.24;68.57;99089.21;131230;1253;109139;-79
2023/08/01 02:58:10;;;;;;;4.10;3.00;;;;;;;18.22;68.50;99083.77;131172;1253;108765;-79
2023/08/01 03:01:16;;;;;;;5.40;3.10;;;;;;;18.21;68.52;99084.45;131202;1251;107562;-80
2023/08/01 03:04:21;;;;;;;4.70;3.50;;;;;;;18.21;68.53;99078.72;131179;1254;107250;-82
2023/08/01 03:07:27;;;;;;;5.30;3.40;;;;;;;18.20;68.69;99075.56;131338;1248;107608;-80
2023/08/01 03:10:33;;;;;;;4.00;2.80;;;;;;;18.20;68.65;99068.88;131287;1248;107480;-80
2023/08/01 03:13:38;;;;;;;3.60;2.60;;;;;;;18.20;68.71;99063.45;131173;1253;107534;-79
2023/08/01 03:16:44;;;;;;;5.40;2.90;;;;;;;18.24;68.68;99062.42;131210;1253;107450;-80
2023/08/01 03:19:49;;;;;;;4.30;3.10;;;;;;;18.31;68.74;99057.80;131215;1253;107494;-79
2023/08/01 03:22:55;;;;;;;4.70;2.90;;;;;;;18.36;68.50;99056.03;131230;1253;106571;-80
2023/08/01 03:26:01;;;;;;;4.00;2.90;;;;;;;18.40;68.72;99052.77;131199;1253;107475;-79
2023/08/01 03:29:06;;;;;;;3.70;3.10;;;;;;;18.40;68.62;99043.71;131218;1248;107218;-79
2023/08/01 03:32:12;;;;;;;6.70;3.30;;;;;;;18.39;68.69;99042.44;131161;1251;107549;-80
2023/08/01 03:35:17;;;;;;;6.80;3.20;;;;;;;18.38;68.74;99039.59;131304;1263;106704;-79
2023/08/01 03:38:23;;;;;;;3.90;3.20;;;;;;;18.36;68.80;99036.31;131296;1252;107324;-80
2023/08/01 03:41:29;;;;;;;4.50;3.40;;;;;;;18.36;68.76;99036.11;131218;1254;107347;-80
2023/08/01 03:44:34;;;;;;;3.60;2.90;;;;;;;18.36;68.85;99030.38;131237;1253;106564;-80
2023/08/01 03:47:40;;;;;;;4.40;3.00;;;;;;;18.36;68.73;99032.11;131222;1253;106747;-79
2023/08/01 03:50:46;;;;;;;4.30;3.20;;;;;;;18.39;68.93;99029.31;131324;1253;107534;-79
2023/08/01 03:53:51;;;;;;;3.70;2.60;;;;;;;18.48;68.89;99027.45;131234;1250;107964;-81
2023/08/01 03:56:57;;;;;;;4.80;2.90;;;;;;;18.60;68.75;99025.80;131369;1252;107371;-80
2023/08/01 04:00:04;;;;;;;5.60;2.80;;;;;;;18.75;68.78;99017.33;131374;1253;107539;-80
2023/08/01 04:03:18;;;;;;;5.00;3.10;;;;;;;18.95;68.63;99018.30;131436;1253;107535;-79
2023/08/01 04:06:24;;;;;;;4.00;2.90;;;;;;;19.15;68.53;99014.98;131511;1250;107357;-80
2023/08/01 04:09:29;;;;;;;3.30;2.60;;;;;;;19.35;68.17;99011.05;131231;1248;107527;-80
2023/08/01 04:12:35;;;;;;;3.70;2.50;;;;;;;19.49;68.01;99008.52;131294;1253;107526;-79
2023/08/01 04:15:41;;;;;;;4.50;2.80;;;;;;;19.66;67.78;99009.64;131368;1253;106828;-80
2023/08/01 04:18:46;;;;;;;5.20;2.60;;;;;;;19.80;67.67;99012.39;131286;1252;107493;-79
2023/08/01 04:21:52;;;;;;;3.80;2.60;;;;;;;19.88;67.50;99011.13;131243;1253;107653;-80
2023/08/01 04:24:57;;;;;;;3.60;2.80;;;;;;;19.88;67.50;99011.51;131264;1253;107545;-79
2023/08/01 04:28:03;;;;;;;4.90;2.80;;;;;;;19.83;67.38;99011.25;131254;1248;107229;-79
2023/08/01 04:31:09;;;;;;;6.00;2.60;;;;;;;19.78;67.40;99005.83;131255;1254;106683;-79
2023/08/01 04:34:14;;;;;;;3.70;2.40;;;;;;;19.75;67.36;99004.67;131251;1248;107357;-78
2023/08/01 04:37:22;;;;;;;4.90;2.50;;;;;;;19.69;67.27;99004.00;131267;1253;107510;-79
2023/08/01 04:40:28;;;;;;;3.30;2.40;;;;;;;19.65;67.36;98999.92;131222;1253;107365;-81
2023/08/01 04:43:33;;;;;;;3.90;2.40;;;;;;;19.61;67.22;98998.23;131126;1250;107589;-80
2023/08/01 04:46:39;;;;;;;4.60;2.50;;;;;;;19.59;67.32;98996.78;131481;1253;107454;-80
2023/08/01 04:49:47;;;;;;;3.90;2.80;;;;;;;19.54;67.29;98989.39;131688;1252;107439;-81
2023/08/01 04:52:53;;;;;;;2.60;2.30;;;;;;;19.52;67.25;98986.11;131556;1253;107492;-80
2023/08/01 04:55:58;;;;;;;4.40;2.60;;;;;;;19.51;67.19;98982.89;131431;1248;107136;-81
2023/08/01 04:59:04;;;;;;;4.80;2.20;;;;;;;19.53;67.38;98982.01;131896;1250;106510;-81
2023/08/01 05:02:09;;;;;;;4.50;2.50;;;;;;;19.57;67.36;98978.58;131647;1252;106489;-79
2023/08/01 05:05:16;;;;;;;4.00;2.60;;;;;;;19.61;67.27;98979.79;131428;1252;107518;-80
2023/08/01 05:08:21;;;;;;;4.20;2.30;;;;;;;19.66;67.20;98976.39;131353;1254;108005;-80
2023/08/01 05:11:27;;;;;;;3.90;2.30;;;;;;;19.70;67.14;98975.05;131416;1248;107474;-79
2023/08/01 05:14:32;;;;;;;4.30;3.20;;;;;;;19.75;67.22;98973.70;131304;1253;107539;-79
2023/08/01 05:17:38;;;;;;;4.50;3.00;;;;;;;19.81;67.02;98970.78;131297;1253;107520;-80
2023/08/01 05:20:43;;;;;;;5.30;3.00;;;;;;;19.87;67.06;98968.30;131268;1253;107465;-79
2023/08/01 05:23:49;;;;;;;4.90;2.60;;;;;;;19.89;66.80;98964.15;131325;1253;107504;-80
2023/08/01 05:26:54;;;;;;;3.30;2.60;;;;;;;19.89;66.77;98965.13;131436;1248;107483;-80
2023/08/01 05:30:00;;;;;;;3.60;2.60;;;;;;;19.90;66.64;98957.89;131258;1248;107309;-79
2023/08/01 05:33:06;;;;;;;2.80;2.10;;;;;;;19.95;66.69;98957.52;131393;1253;107503;-79
2023/08/01 05:36:11;;;;;;;5.20;2.60;;;;;;;20.05;66.57;98955.90;131442;1247;107506;-79
2023/08/01 05:39:18;;;;;;;6.30;2.20;;;;;;;20.17;66.28;98954.73;131419;1251;107224;-78
2023/08/01 05:42:25;;;;;;;5.00;2.30;;;;;;;20.28;66.18;98955.44;131132;1251;109849;-80
2023/08/01 05:45:30;;;;;;;3.10;2.40;;;;;;;20.38;66.05;98952.70;131534;1250;107714;-79
2023/08/01 05:48:36;;;;;;;4.70;2.50;;;;;;;20.47;65.79;98952.66;131531;1252;107520;-79
2023/08/01 05:51:42;;;;;;;3.70;2.20;;;;;;;20.53;65.56;98949.56;131532;1248;107124;-79
2023/08/01 05:54:47;;;;;;;3.60;2.40;;;;;;;20.64;65.51;98944.58;131302;1247;107523;-78
2023/08/01 05:57:53;;;;;;;3.40;2.20;;;;;;;20.75;65.29;98936.60;131563;1248;107464;-77
2023/08/01 06:00:59;;;;;;;3.70;2.20;;;;;;;20.84;65.34;98941.27;131462;1254;107256;-76
2023/08/01 06:04:05;;;;;;;4.50;2.20;;;;;;;20.92;64.98;98939.77;131354;1253;108304;-78
2023/08/01 06:07:10;;;;;;;4.30;2.30;;;;;;;20.95;65.06;98937.11;131400;1253;107505;-78
2023/08/01 06:10:16;;;;;;;2.60;2.00;;;;;;;21.04;64.74;98931.23;131483;1253;107502;-78
2023/08/01 06:13:21;;;;;;;5.60;2.40;;;;;;;21.14;64.66;98925.77;131273;1252;107496;-78
2023/08/01 06:16:27;;;;;;;4.50;2.30;;;;;;;21.26;64.32;98928.98;131533;1252;107543;-78
2023/08/01 06:19:32;;;;;;;5.00;2.50;;;;;;;21.38;64.20;98925.79;131292;1248;107427;-78
2023/08/01 06:22:38;;;;;;;3.30;2.30;;;;;;;21.51;64.05;98927.61;131560;1253;107539;-79
2023/08/01 06:25:43;;;;;;;3.30;2.10;;;;;;;21.61;63.46;98920.06;131444;1252;107950;-79
2023/08/01 06:28:49;;;;;;;4.50;1.90;;;;;;;21.69;63.52;98914.54;131394;1252;108646;-79
2023/08/01 06:31:55;;;;;;;2.60;2.00;;;;;;;21.83;63.73;98912.58;131232;1248;107402;-79
2023/08/01 06:35:03;;;;;;;3.30;2.10;;;;;;;21.96;63.52;98913.70;131383;1253;107235;-79
2023/08/01 06:38:08;;;;;;;6.00;2.20;;;;;;;22.10;63.74;98911.52;131418;1253;107528;-79
2023/08/01 06:41:14;;;;;;;2.60;2.00;;;;;;;22.25;63.37;98910.05;131468;1259;107324;-79
2023/08/01 06:44:26;;;;;;;3.50;2.30;;;;;;;22.43;63.03;98906.54;131496;1249;107331;-80
2023/08/01 06:47:32;;;;;;;3.50;2.20;;;;;;;22.69;63.06;98910.11;131561;1248;107504;-80
2023/08/01 06:50:37;;;;;;;5.60;2.40;;;;;;;22.88;62.35;98903.61;131412;1253;108682;-79
2023/08/01 06:53:43;;;;;;;3.50;2.10;;;;;;;23.02;62.17;98899.52;131281;1253;107328;-79
2023/08/01 06:56:48;;;;;;;3.40;2.10;;;;;;;23.15;61.86;98894.04;131321;1251;107245;-78
2023/08/01 06:59:54;;;;;;;4.60;2.30;;;;;;;23.28;61.83;98893.56;131334;1253;107583;-79
2023/08/01 07:03:00;;;;;;;4.70;2.10;;;;;;;23.40;61.23;98889.33;131456;1251;107254;-79
2023/08/01 07:06:07;;;;;;;3.70;2.20;;;;;;;23.50;61.05;98889.11;131541;1251;107630;-79
2023/08/01 07:09:12;;;;;;;3.80;2.30;;;;;;;23.59;60.92;98891.73;131424;1253;107517;-78
2023/08/01 07:12:18;;;;;;;2.90;2.00;;;;;;;23.53;60.68;98890.20;131375;1253;105817;-78
2023/08/01 07:15:23;;;;;;;3.40;2.10;;;;;;;23.38;60.62;98887.80;131353;1254;105834;-78
2023/08/01 07:18:29;;;;;;;2.40;2.00;;;;;;;23.25;60.63;98883.11;131298;1249;107495;-78
2023/08/01 07:21:34;;;;;;;4.10;2.10;;;;;;;23.18;60.78;98880.22;131340;1254;107032;-78
2023/08/01 07:24:40;;;;;;;3.50;2.30;;;;;;;23.23;60.74;98880.00;131399;1251;107201;-78
2023/08/01 07:27:45;;;;;;;3.50;1.90;;;;;;;23.27;60.37;98873.70;131470;1253;107437;-78
2023/08/01 07:30:58;;;;;;;3.00;2.00;;;;;;;23.28;60.48;98869.23;131381;1253;107244;-78
2023/08/01 07:34:04;;;;;;;2.70;1.90;;;;;;;23.25;60.32;98868.85;131349;1250;107338;-78
2023/08/01 07:37:09;;;;;;;3.00;2.00;;;;;;;23.25;60.28;98867.77;131431;1248;107541;-81
2023/08/01 07:40:15;;;;;;;3.60;2.30;;;;;;;23.29;59.78;98868.09;131545;1254;107585;-78
2023/08/01 07:43:20;;;;;;;4.70;2.00;;;;;;;23.37;59.87;98865.21;131355;1253;107494;-78
2023/08/01 07:46:26;;;;;;;3.80;2.20;;;;;;;23.43;59.66;98864.67;131434;1248;105765;-78
2023/08/01 07:49:32;;;;;;;3.20;2.10;;;;;;;23.48;59.70;98857.16;131331;1254;106577;-78
2023/08/01 07:52:37;;;;;;;4.40;2.40;;;;;;;23.55;59.55;98862.70;131308;1247;107400;-78
2023/08/01 07:55:42;;;;;;;3.50;2.40;;;;;;;23.58;59.43;98860.70;131246;1253;106463;-79
2023/08/01 07:58:48;;;;;;;3.90;2.30;;;;;;;23.66;59.12;98860.03;131345;1253;107456;-79
2023/08/01 08:01:54;;;;;;;6.10;2.50;;;;;;;23.75;59.02;98858.35;131365;1253;107344;-78
2023/08/01 08:04:59;;;;;;;3.40;2.10;;;;;;;23.87;58.92;98861.79;131437;1248;107924;-78
2023/08/01 08:08:06;;;;;;;3.50;2.10;;;;;;;24.02;58.64;98860.35;131395;1253;105961;-78
2023/08/01 08:11:11;;;;;;;3.70;2.20;;;;;;;24.13;58.50;98852.26;131382;1253;107258;-78
2023/08/01 08:14:17;;;;;;;3.60;2.00;;;;;;;24.21;58.50;98850.15;131338;1252;107545;-78
2023/08/01 08:17:22;;;;;;;3.10;2.20;;;;;;;24.29;58.35;98846.48;131273;1252;107523;-79
2023/08/01 08:20:28;;;;;;;4.70;2.30;;;;;;;24.42;58.58;98847.08;131445;1251;107486;-78
2023/08/01 08:23:33;;;;;;;6.50;2.40;;;;;;;24.58;58.51;98847.05;131350;1247;107533;-79
2023/08/01 08:26:39;;;;;;;3.30;2.20;;;;;;;24.64;58.01;98848.11;131356;1248;107489;-79
2023/08/01 08:29:45;;;;;;;6.10;2.20;;;;;;;24.67;58.27;98850.66;131366;1261;107515;-79
2023/08/01 08:32:50;;;;;;;4.30;2.00;;;;;;;24.63;57.74;98855.27;131213;1253;124307;-79
2023/08/01 08:35:56;;;;;;;3.80;2.20;;;;;;;24.58;57.79;98856.85;131435;1248;107357;-79
2023/08/01 08:39:03;;;;;;;4.40;2.20;;;;;;;24.57;57.51;98858.45;131367;1251;106469;-79
2023/08/01 08:42:10;;;;;;;3.40;2.30;;;;;;;24.60;57.66;98857.52;131347;1248;107522;-79
2023/08/01 08:45:20;;;;;;;4.20;2.60;;;;;;;24.60;57.55;98852.93;131325;1253;107296;-79
2023/08/01 08:48:27;;;;;;;3.20;2.20;;;;;;;24.58;57.15;98856.20;131416;1249;107239;-79
2023/08/01 08:51:33;;;;;;;3.50;2.50;;;;;;;24.58;57.23;98853.27;131393;1248;109336;-79
2023/08/01 08:54:40;;;;;;;5.50;2.40;;;;;;;24.63;56.95;98857.17;131363;1253;107491;-79
2023/08/01 08:57:50;;;;;;;3.50;2.30;;;;;;;24.73;56.87;98855.48;131395;1253;105763;-79
2023/08/01 09:00:56;;;;;;;5.50;2.30;;;;;;;24.80;56.74;98848.19;131369;1253;105919;-79
2023/08/01 09:04:01;;;;;;;4.30;2.30;;;;;;;24.83;56.81;98841.41;131421;1248;107242;-79
2023/08/01 09:07:11;;;;;;;3.90;2.20;;;;;;;24.81;56.84;98836.45;131455;1252;107511;-79
2023/08/01 09:10:17;;;;;;;3.60;2.40;;;;;;;24.77;57.22;98831.57;131551;1248;107233;-81
2023/08/01 09:13:22;;;;;;;4.10;2.30;;;;;;;24.69;57.24;98833.14;131376;1253;108107;-79
2023/08/01 09:16:29;;;;;;;3.90;2.30;;;;;;;24.62;56.95;98831.10;131525;1248;106408;-79
2023/08/01 09:19:34;;;;;;;3.20;2.30;;;;;;;24.52;57.13;98835.45;131391;1253;106658;-79
2023/08/01 09:22:47;;;;;;;3.70;2.50;;;;;;;24.43;57.20;98834.80;131534;1253;107353;-79
2023/08/01 09:25:53;;;;;;;3.40;2.40;;;;;;;24.38;57.43;98837.30;131427;1253;107524;-79
2023/08/01 09:28:59;;;;;;;4.00;2.50;;;;;;;24.34;57.97;98834.14;131495;1253;107461;-79
2023/08/01 09:32:14;;;;;;;4.50;2.60;;;;;;;24.32;58.00;98836.00;131332;1256;107462;-79
2023/08/01 09:35:21;;;;;;;3.50;2.40;;;;;;;24.23;58.29;98832.87;131583;1252;107585;-80
2023/08/01 09:38:28;;;;;;;4.80;2.50;;;;;;;24.12;58.40;98832.91;131428;1247;107163;-79
2023/08/01 09:41:34;;;;;;;4.00;2.80;;;;;;;24.03;58.45;98833.43;131582;1253;105681;-79
2023/08/01 09:44:46;;;;;;;3.20;2.40;;;;;;;23.94;58.62;98829.20;131360;1248;107101;-79
2023/08/01 09:47:51;;;;;;;2.90;2.40;;;;;;;23.85;58.97;98828.61;131362;1253;107435;-80
2023/08/01 09:51:08;;;;;;;3.90;2.70;;;;;;;23.77;59.54;98830.67;131444;1253;107530;-79
2023/08/01 09:54:14;;;;;;;4.80;2.40;;;;;;;23.65;59.71;98826.60;131737;1248;107518;-78
2023/08/01 09:57:21;;;;;;;4.50;2.60;;;;;;;23.58;60.16;98827.74;131592;1253;107437;-78
2023/08/01 10:00:27;;;;;;;4.00;2.60;;;;;;;23.51;60.36;98827.96;131451;1251;107544;-79
2023/08/01 10:03:33;;;;;;;5.60;2.60;;;;;;;23.43;60.62;98826.18;131589;1252;107520;-79
2023/08/01 10:06:44;;;;;;;2.80;2.40;;;;;;;23.38;60.66;98825.58;131631;1252;107367;-78
2023/08/01 10:09:50;;;;;;;3.00;2.10;;;;;;;23.32;61.16;98823.79;131433;1248;107601;-80
2023/08/01 10:12:57;;;;;;;4.00;2.50;;;;;;;23.26;61.29;98819.16;131488;1253;107574;-78
2023/08/01 10:16:03;;;;;;;3.90;2.70;;;;;;;23.23;61.59;98820.56;131493;1253;107462;-78
2023/08/01 10:19:11;;;;;;;4.00;2.60;;;;;;;23.13;61.67;98815.16;131521;1248;107248;-78
2023/08/01 10:22:20;;;;;;;4.00;3.10;;;;;;;23.06;62.08;98814.30;131632;1247;107222;-79
2023/08/01 10:25:27;;;;;;;3.90;3.00;;;;;;;23.01;62.47;98811.61;131485;1253;108566;-79
2023/08/01 12:47:11;;;;;;;5.20;3.30;;;;;;;24.51;61.57;98652.27;127777;1285;648553;-80
2023/08/01 12:50:16;;;;;;;5.00;3.20;;;;;;;24.55;61.53;98648.83;129971;1283;186622;-80
2023/08/01 12:53:23;;;;;;;3.90;3.20;;;;;;;24.53;61.56;98648.34;130183;1262;107201;-80
2023/08/01 12:56:29;;;;;;;6.50;3.40;;;;;;;24.45;61.45;98646.19;130480;1259;108559;-80
2023/08/01 12:59:35;;;;;;;4.10;3.10;;;;;;;24.41;61.76;98648.18;130586;1274;107438;-81
2023/08/01 13:02:40;;;;;;;6.10;3.30;;;;;;;24.38;61.34;98642.64;130471;1257;107532;-80
2023/08/01 13:05:46;;;;;;;4.70;3.00;;;;;;;24.22;61.50;98640.46;130461;1272;107617;-80
2023/08/01 13:08:51;;;;;;;4.60;3.00;;;;;;;24.08;61.58;98639.61;130511;1281;107854;-80
2023/08/01 13:11:57;;;;;;;4.60;3.20;;;;;;;23.91;61.83;98640.34;130409;1262;107528;-80
2023/08/01 13:15:03;;;;;;;3.60;3.10;;;;;;;23.78;61.74;98642.27;130429;1262;107523;-81
2023/08/01 13:18:10;;;;;;;5.40;3.40;;;;;;;23.61;61.89;98643.89;130471;1259;107547;-79
2023/08/01 13:21:16;;;;;;;4.30;3.10;;;;;;;23.42;62.03;98645.39;130452;1262;107377;-79
2023/08/01 13:24:21;;;;;;;4.00;3.00;;;;;;;23.26;62.02;98650.88;130498;1262;107523;-80
2023/08/01 13:27:27;;;;;;;4.30;3.00;;;;;;;23.16;62.12;98652.04;130453;1262;107551;-80
2023/08/01 13:30:32;;;;;;;5.60;2.80;;;;;;;23.05;62.01;98648.89;130488;1260;106540;-80
2023/08/01 13:33:38;;;;;;;4.50;3.00;;;;;;;22.98;61.78;98651.21;130532;1262;107592;-80
2023/08/01 13:36:43;;;;;;;4.40;2.60;;;;;;;22.87;61.72;98649.76;130517;1262;107246;-80
2023/08/01 13:39:49;;;;;;;5.10;2.80;;;;;;;22.82;61.76;98648.23;130498;1281;107523;-80
2023/08/01 13:42:54;;;;;;;3.70;2.70;;;;;;;22.87;61.84;98647.36;130479;1259;107580;-80
2023/08/01 13:46:00;;;;;;;3.50;2.60;;;;;;;22.98;61.65;98639.19;130499;1259;107501;-80
2023/08/01 13:49:05;;;;;;;3.50;2.90;;;;;;;23.15;61.64;98637.45;131021;1258;107502;-80
2023/08/01 13:52:11;;;;;;;4.20;2.90;;;;;;;23.29;61.61;98636.21;131741;1260;105549;-79
2023/08/01 13:55:18;;;;;;;3.20;2.70;;;;;;;23.43;61.61;98627.96;130400;1260;107624;-78
2023/08/01 13:58:24;;;;;;;3.60;3.00;;;;;;;23.56;61.64;98620.49;130471;1276;107280;-78
2023/08/01 14:01:29;;;;;;;3.60;3.10;;;;;;;23.59;61.33;98626.86;130465;1259;107597;-78
2023/08/01 14:04:35;;;;;;;3.40;3.00;;;;;;;23.56;61.65;98624.14;130430;1262;106711;-78
2023/08/01 14:07:41;;;;;;;3.80;3.00;;;;;;;23.47;61.59;98623.30;130369;1259;107265;-78
2023/08/01 14:10:46;;;;;;;3.80;3.20;;;;;;;23.36;61.72;98620.90;130309;1262;109297;-80
2023/08/01 14:13:52;;;;;;;4.90;3.30;;;;;;;23.31;61.69;98616.78;130420;1262;107189;-78
2023/08/01 14:16:57;;;;;;;4.60;3.00;;;;;;;23.28;61.72;98610.15;130505;1262;107257;-80
2023/08/01 14:20:05;;;;;;;5.80;3.80;;;;;;;23.25;61.76;98612.48;130314;1259;107279;-80
2023/08/01 14:23:10;;;;;;;4.10;3.00;;;;;;;23.23;61.71;98609.11;130530;1278;107259;-81
2023/08/01 14:26:16;;;;;;;5.00;3.50;;;;;;;23.21;61.90;98609.02;130497;1260;106416;-80
2023/08/01 14:29:22;;;;;;;4.70;3.40;;;;;;;23.12;61.83;98602.47;130441;1281;107578;-81
2023/08/01 14:32:28;;;;;;;4.60;3.40;;;;;;;23.01;61.93;98598.77;130448;1262;107523;-80
2023/08/01 14:35:33;;;;;;;5.00;3.50;;;;;;;22.91;62.21;98601.88;130588;1259;107530;-80
2023/08/01 14:38:39;;;;;;;5.30;3.50;;;;;;;22.80;62.16;98592.70;130657;1262;107475;-81
2023/08/01 14:41:44;;;;;;;6.90;3.40;;;;;;;22.68;62.34;98590.91;130604;1259;107856;-80
2023/08/01 14:44:55;;;;;;;4.50;3.30;;;;;;;22.58;62.56;98583.20;130544;1260;107497;-80
2023/08/01 14:48:00;;;;;;;5.00;3.40;;;;;;;22.50;62.73;98574.13;130577;1260;107418;-78
2023/08/01 14:51:08;;;;;;;5.50;3.60;;;;;;;22.45;62.73;98569.14;130373;1259;107588;-79
2023/08/01 14:54:14;;;;;;;4.50;3.40;;;;;;;22.50;63.01;98562.88;130360;1262;107533;-79
2023/08/01 14:57:19;;;;;;;5.00;3.50;;;;;;;22.59;63.08;98555.53;130404;1262;107514;-80
2023/08/01 15:00:24;;;;;;;3.70;3.30;;;;;;;22.58;63.16;98567.28;130457;1262;107263;-79
2023/08/01 15:03:30;;;;;;;5.90;3.40;;;;;;;22.49;63.55;98564.56;130647;1259;107549;-79
2023/08/01 15:06:35;;;;;;;3.90;3.20;;;;;;;22.38;63.83;98568.27;130288;1262;107527;-79
2023/08/01 15:09:44;;;;;;;4.30;3.10;;;;;;;22.29;64.16;98573.48;130824;1256;107390;-78
2023/08/01 15:12:51;;;;;;;4.50;3.00;;;;;;;22.19;64.32;98570.45;130556;1257;107410;-79
2023/08/01 15:15:58;;;;;;;4.50;3.10;;;;;;;22.22;64.72;98576.55;130578;1260;107541;-80
2023/08/01 15:19:03;;;;;;;3.70;3.30;;;;;;;22.30;64.67;98580.65;130766;1259;107467;-80
2023/08/01 15:22:09;;;;;;;4.20;3.00;;;;;;;22.33;64.75;98584.79;130694;1258;107371;-80
2023/08/01 15:25:15;;;;;;;5.10;3.10;;;;;;;22.36;64.87;98584.02;131065;1258;105746;-79
2023/08/01 15:28:20;;;;;;;4.30;3.30;;;;;;;22.39;65.01;98580.98;130753;1256;107532;-80
2023/08/01 15:31:26;;;;;;;5.00;3.20;;;;;;;22.43;65.09;98583.65;130717;1258;107596;-80
2023/08/01 15:34:33;;;;;;;4.80;3.20;;;;;;;22.47;65.17;98583.15;130877;1259;107568;-80
2023/08/01 15:37:40;;;;;;;4.20;3.00;;;;;;;22.51;65.21;98586.81;130747;1254;107565;-80
2023/08/01 15:40:46;;;;;;;3.90;2.80;;;;;;;22.52;65.09;98592.02;130667;1261;107584;-79
2023/08/01 15:43:52;;;;;;;3.80;3.10;;;;;;;22.48;64.92;98595.88;130548;1260;107259;-79
2023/08/01 15:46:58;;;;;;;4.30;3.00;;;;;;;22.44;64.96;98599.08;130652;1257;107563;-78
2023/08/01 15:50:04;;;;;;;4.70;3.20;;;;;;;22.42;64.97;98600.72;130918;1258;107248;-78
2023/08/01 15:53:10;;;;;;;3.90;3.00;;;;;;;22.38;64.93;98600.60;130646;1260;107470;-78
2023/08/01 15:56:16;;;;;;;4.10;3.20;;;;;;;22.39;64.96;98599.89;130499;1258;107270;-77
2023/08/01 15:59:21;;;;;;;4.30;3.00;;;;;;;22.39;65.06;98602.77;130510;1261;107527;-77
2023/08/01 16:02:27;;;;;;;4.10;3.00;;;;;;;22.33;64.94;98604.73;130631;1256;107504;-77
2023/08/01 16:05:33;;;;;;;3.30;2.80;;;;;;;22.29;65.03;98602.93;130647;1257;107185;-77
2023/08/01 16:08:38;;;;;;;5.00;3.20;;;;;;;22.24;65.11;98600.52;130562;1261;107603;-77
2023/08/01 16:11:44;;;;;;;3.30;3.00;;;;;;;22.22;65.32;98591.54;130521;1259;106651;-77
2023/08/01 16:14:49;;;;;;;5.40;2.90;;;;;;;22.24;65.15;98591.21;130535;1260;107549;-77
2023/08/01 16:17:55;;;;;;;4.20;3.20;;;;;;;22.25;65.06;98596.12;130509;1256;107492;-78
2023/08/01 16:21:00;;;;;;;5.80;3.00;;;;;;;22.28;64.96;98596.20;130581;1255;107978;-80
2023/08/01 16:24:06;;;;;;;4.00;3.00;;;;;;;22.33;65.05;98596.36;130764;1274;107272;-79
2023/08/01 16:27:12;;;;;;;3.70;2.90;;;;;;;22.37;65.15;98599.95;130654;1255;107466;-80
2023/08/01 16:30:18;;;;;;;3.10;2.70;;;;;;;22.39;65.19;98601.64;130538;1270;107304;-79
2023/08/01 16:33:23;;;;;;;3.80;3.00;;;;;;;22.38;65.01;98605.77;130721;1263;106261;-77